Time;durP1;ratioP1;P1;durP2;ratioP2;P2;SDS_P1;SDS_P2;PMS_P1;PMS_P2;Temp;Humidity;BMP_temperature;BMP_pressure;BME280_temperature;BME280_humidity;BME280_pressure;Samples;Min_cycle;Max_cycle;Signal;HPM_P1;HPM_P2
2022/03/07 00:03:39;;;;;;;28.63;11.67;;;-0.20;76.90;;;-2.28;63.72;100351.50;10442283;27;96609;-77
2022/03/07 00:08:42;;;;;;;28.10;10.23;;;-0.20;77.50;;;-2.36;64.03;100355.41;10442357;27;96553;-77
2022/03/07 00:13:46;;;;;;;24.77;10.97;;;-0.30;78.10;;;-2.44;64.31;100364.47;10421398;27;97511;-76
2022/03/07 00:18:49;;;;;;;25.20;10.80;;;-0.30;79.20;;;-2.50;64.23;100364.81;10432995;27;98373;-77
2022/03/07 00:23:52;;;;;;;24.17;10.70;;;-0.40;79.90;;;-2.54;64.79;100368.47;10434454;27;96544;-77
2022/03/07 00:28:55;;;;;;;22.97;10.50;;;-0.50;80.00;;;-2.56;64.91;100362.53;10438282;27;96557;-77
2022/03/07 00:33:58;;;;;;;19.60;10.23;;;-0.50;80.80;;;-2.57;64.74;100358.25;10435698;27;98351;-77
2022/03/07 00:39:01;;;;;;;27.00;10.70;;;-0.50;79.80;;;-2.61;65.16;100359.31;10403106;27;96518;-77
2022/03/07 00:44:04;;;;;;;23.87;10.57;;;-0.50;80.50;;;-2.58;65.59;100361.78;10415196;27;96548;-77
2022/03/07 00:49:08;;;;;;;22.73;10.73;;;-0.60;83.00;;;-2.50;65.46;100359.59;10423015;27;97670;-77
2022/03/07 00:54:11;;;;;;;23.60;10.20;;;-0.60;80.20;;;-2.39;65.35;100356.44;10441651;27;96463;-77
2022/03/07 00:59:13;;;;;;;21.67;9.67;;;-0.50;81.60;;;-2.26;65.02;100352.25;10422648;27;97801;-77
2022/03/07 01:04:17;;;;;;;24.13;10.13;;;-0.40;82.00;;;-2.17;65.07;100361.31;10435676;27;96689;-77
2022/03/07 01:09:20;;;;;;;24.33;11.00;;;-0.30;82.70;;;-2.12;65.02;100363.69;10437966;27;96618;-77
2022/03/07 01:14:22;;;;;;;21.93;9.97;;;-0.30;84.20;;;-2.07;64.79;100367.72;10423542;27;97770;-77
2022/03/07 01:19:25;;;;;;;21.47;10.57;;;-0.20;84.50;;;-2.01;64.43;100366.53;10420291;27;96830;-77
2022/03/07 01:24:30;;;;;;;19.77;8.80;;;-0.20;83.30;;;-1.96;64.41;100365.38;10438810;27;96585;-77
2022/03/07 01:29:33;;;;;;;25.60;11.30;;;-0.10;84.10;;;-1.92;64.44;100366.88;10407487;27;96780;-77
2022/03/07 01:34:36;;;;;;;21.13;9.60;;;-0.10;83.20;;;-1.92;64.72;100369.50;10423671;27;96679;-77
2022/03/07 01:39:39;;;;;;;23.70;10.87;;;0.00;82.70;;;-1.92;64.29;100371.22;10436795;27;96950;-77
2022/03/07 01:44:42;;;;;;;19.83;9.83;;;0.00;81.80;;;-1.98;63.79;100363.75;10413248;27;97079;-77
2022/03/07 01:49:45;;;;;;;24.07;11.23;;;0.00;81.80;;;-2.08;64.38;100363.44;10402890;27;96899;-77
2022/03/07 01:54:49;;;;;;;21.90;9.57;;;-0.10;83.20;;;-2.20;64.49;100356.28;10412337;27;96661;-77
2022/03/07 01:59:52;;;;;;;21.70;11.33;;;-0.10;82.30;;;-2.36;65.35;100358.88;10418553;27;96962;-77
2022/03/07 02:04:55;;;;;;;23.07;10.30;;;-0.20;82.00;;;-2.47;65.75;100359.44;10428853;27;96609;-77
2022/03/07 02:09:59;;;;;;;25.30;10.53;;;-0.40;83.10;;;-2.65;65.32;100356.97;10413653;27;97675;-77
2022/03/07 02:15:05;;;;;;;27.00;10.63;;;-0.50;82.80;;;-2.82;65.75;100357.81;10402862;27;96964;-77
2022/03/07 02:20:10;;;;;;;21.90;9.83;;;-0.60;84.10;;;-3.01;66.61;100363.13;10388355;27;96895;-77
2022/03/07 02:25:13;;;;;;;26.30;11.03;;;-0.80;83.00;;;-3.17;67.15;100363.06;10429798;27;96656;-77
2022/03/07 02:30:16;;;;;;;26.00;10.90;;;-0.90;87.10;;;-3.31;67.80;100362.91;10433480;27;98694;-77
2022/03/07 02:35:19;;;;;;;24.23;10.60;;;-1.00;87.10;;;-3.46;68.43;100356.72;10412199;27;96511;-77
2022/03/07 02:40:22;;;;;;;22.90;10.60;;;-1.20;86.10;;;-3.56;69.67;100358.91;10397438;28;97240;-77
2022/03/07 02:45:46;;;;;;;25.07;11.10;;;-1.30;86.00;;;-3.65;70.08;100367.16;10404757;27;96593;-77
2022/03/07 02:50:49;;;;;;;28.30;10.93;;;-1.40;87.00;;;-3.74;69.59;100367.59;10437848;27;96515;-77
2022/03/07 02:55:53;;;;;;;21.70;10.00;;;-1.50;88.00;;;-3.82;69.70;100375.75;10430335;27;96542;-77
2022/03/07 03:00:56;;;;;;;23.97;9.87;;;-1.60;90.20;;;-3.83;71.08;100371.47;10452218;27;96627;-77
2022/03/07 03:06:00;;;;;;;25.73;10.77;;;-1.60;91.90;;;-3.78;70.83;100376.44;10445121;27;96515;-77
2022/03/07 03:11:03;;;;;;;22.57;10.33;;;-1.60;91.80;;;-3.77;70.66;100372.94;10408906;27;98923;-77
2022/03/07 03:16:06;;;;;;;25.60;11.63;;;-1.60;91.70;;;-3.73;70.97;100376.22;10439034;27;96624;-77
2022/03/07 03:21:09;;;;;;;23.63;11.10;;;-1.60;91.90;;;-3.72;70.97;100375.31;10413256;27;100959;-77
2022/03/07 03:26:12;;;;;;;24.93;11.60;;;-1.60;92.90;;;-3.70;70.88;100382.13;10448673;27;97630;-77
2022/03/07 03:31:15;;;;;;;26.37;10.73;;;-1.70;92.50;;;-3.65;70.95;100392.28;10434402;27;96579;-77
2022/03/07 03:36:19;;;;;;;24.63;11.47;;;-1.60;93.70;;;-3.60;71.17;100390.28;10421285;28;96527;-77
2022/03/07 03:41:22;;;;;;;19.37;9.90;;;-1.60;92.70;;;-3.51;71.03;100390.72;10396693;27;96981;-77
2022/03/07 03:46:25;;;;;;;26.60;11.37;;;-1.60;92.60;;;-3.41;70.97;100390.28;10407267;27;96725;-77
2022/03/07 03:51:28;;;;;;;25.13;11.33;;;-1.50;93.30;;;-3.32;70.38;100395.00;10416286;27;98563;-77
2022/03/07 03:56:30;;;;;;;24.23;11.43;;;-1.40;92.90;;;-3.30;70.66;100383.63;10416615;27;98493;-78
2022/03/07 04:01:34;;;;;;;28.77;12.90;;;-1.40;94.00;;;-3.28;70.15;100381.81;10416324;27;96635;-77
2022/03/07 04:06:37;;;;;;;30.07;13.13;;;-1.40;93.10;;;-3.30;69.98;100377.56;10443493;27;96482;-77
2022/03/07 04:11:40;;;;;;;27.13;12.23;;;-1.40;92.50;;;-3.32;70.25;100372.47;10423171;27;96781;-77
2022/03/07 04:16:43;;;;;;;29.90;13.17;;;-1.40;92.60;;;-3.33;69.87;100380.34;10443686;27;96802;-77
2022/03/07 04:21:47;;;;;;;27.10;12.70;;;-1.50;93.20;;;-3.38;70.13;100375.34;10420719;27;96572;-77
2022/03/07 04:26:50;;;;;;;31.33;12.90;;;-1.50;93.70;;;-3.42;69.70;100383.38;10401596;27;96558;-77
2022/03/07 04:31:53;;;;;;;30.03;12.57;;;-1.50;93.60;;;-3.46;70.09;100385.28;10416070;27;98273;-77
2022/03/07 04:36:55;;;;;;;26.73;11.97;;;-1.50;93.40;;;-3.51;69.82;100382.91;10459084;27;96446;-78
2022/03/07 04:41:59;;;;;;;24.70;10.47;;;-1.60;93.80;;;-3.53;69.70;100382.16;10433175;27;96529;-78
2022/03/07 04:47:02;;;;;;;26.77;11.07;;;-1.60;93.90;;;-3.56;70.48;100390.09;10417107;27;96594;-78
2022/03/07 04:52:06;;;;;;;27.37;11.50;;;-1.60;94.20;;;-3.59;70.41;100387.66;10414784;27;96511;-78
2022/03/07 04:57:09;;;;;;;25.80;11.87;;;-1.60;94.60;;;-3.59;70.64;100385.06;10441494;27;96465;-78
2022/03/07 05:02:13;;;;;;;30.07;12.20;;;-1.60;94.50;;;-3.61;70.95;100386.84;10420228;27;96497;-78
2022/03/07 05:07:16;;;;;;;36.60;13.60;;;-1.50;94.10;;;-3.60;70.47;100393.75;10383351;27;96475;-78
2022/03/07 05:12:19;;;;;;;31.80;12.57;;;-1.50;95.40;;;-3.60;70.84;100401.56;10419449;27;96930;-77
2022/03/07 05:17:22;;;;;;;28.90;12.50;;;-1.60;96.00;;;-3.58;70.80;100398.88;10446234;27;97148;-77
2022/03/07 05:22:25;;;;;;;26.40;10.67;;;-1.50;95.00;;;-3.59;70.79;100398.03;10441279;27;96778;-77
2022/03/07 05:27:28;;;;;;;27.63;12.20;;;-1.60;94.20;;;-3.57;70.80;100397.97;10432071;27;97905;-77
2022/03/07 05:32:31;;;;;;;28.63;11.47;;;-1.60;94.70;;;-3.57;70.68;100391.00;10455463;27;96592;-77
2022/03/07 05:37:34;;;;;;;26.47;12.53;;;-1.50;95.00;;;-3.54;70.75;100390.88;10417770;27;96551;-77
2022/03/07 05:42:38;;;;;;;25.57;10.83;;;-1.50;95.50;;;-3.47;71.26;100400.97;10420299;27;96712;-77
2022/03/07 05:47:42;;;;;;;29.17;11.90;;;-1.50;94.50;;;-3.45;71.37;100410.34;10425512;27;98093;-77
2022/03/07 05:52:45;;;;;;;29.50;12.67;;;-1.40;93.90;;;-3.41;71.07;100411.91;10432899;27;96770;-77
2022/03/07 05:57:48;;;;;;;32.77;11.67;;;-1.40;93.90;;;-3.30;71.19;100413.97;10411242;27;97439;-78
2022/03/07 06:02:50;;;;;;;25.63;12.40;;;-1.40;94.50;;;-3.16;70.85;100421.09;10426548;27;97892;-77
2022/03/07 06:07:54;;;;;;;23.40;11.97;;;-1.30;96.20;;;-3.01;71.07;100421.16;10451569;27;96465;-80
2022/03/07 06:12:57;;;;;;;28.57;13.53;;;-1.20;95.60;;;-2.85;70.22;100420.41;10440739;27;96587;-76
2022/03/07 06:18:00;;;;;;;30.10;14.53;;;-1.00;96.40;;;-2.68;70.05;100411.75;10415097;27;96689;-76
2022/03/07 06:23:04;;;;;;;28.20;14.27;;;-0.90;95.70;;;-2.52;69.57;100413.50;10426132;27;97128;-77
2022/03/07 06:28:09;;;;;;;29.50;12.97;;;-0.70;95.20;;;-2.35;69.14;100415.19;10404707;27;96747;-77
2022/03/07 06:33:13;;;;;;;28.87;12.53;;;-0.60;94.40;;;-2.22;68.12;100407.56;10455617;27;96821;-78
2022/03/07 06:38:17;;;;;;;38.53;16.97;;;-0.40;93.30;;;-2.06;67.86;100410.22;10399657;27;96885;-77
2022/03/07 06:43:21;;;;;;;25.70;11.90;;;-0.30;93.30;;;-1.91;67.37;100423.25;10408694;27;96668;-77
2022/03/07 06:48:24;;;;;;;26.53;12.30;;;-0.10;93.00;;;-1.76;66.72;100416.34;10425429;27;98533;-77
2022/03/07 06:53:27;;;;;;;32.83;15.60;;;0.00;92.40;;;-1.55;66.19;100401.31;10424490;27;96699;-78
2022/03/07 06:58:30;;;;;;;37.30;15.30;;;0.10;92.30;;;-1.31;65.54;100400.88;10428456;27;97696;-78
2022/03/07 07:03:32;;;;;;;26.20;12.57;;;0.40;92.00;;;-1.04;65.56;100416.69;10421384;27;97428;-78
2022/03/07 07:08:35;;;;;;;32.83;13.23;;;0.60;91.70;;;-0.81;64.95;100424.00;10426000;27;96678;-78
2022/03/07 07:13:38;;;;;;;33.50;13.77;;;0.80;91.40;;;-0.58;64.96;100410.44;10396604;27;97822;-78
2022/03/07 07:18:41;;;;;;;29.77;13.60;;;1.10;91.50;;;-0.39;65.03;100423.22;10426945;27;97052;-78
2022/03/07 07:23:44;;;;;;;29.73;14.27;;;1.30;91.40;;;-0.28;64.98;100431.25;10409741;27;96648;-79
2022/03/07 07:28:47;;;;;;;31.33;15.90;;;1.40;91.10;;;-0.16;64.30;100444.50;10420948;27;97395;-78
2022/03/07 07:33:50;;;;;;;28.13;15.27;;;1.60;90.80;;;-0.05;64.05;100431.63;10436057;27;96756;-78
2022/03/07 07:38:53;;;;;;;29.87;13.73;;;1.70;90.40;;;0.09;63.72;100439.44;10416054;27;96711;-78
2022/03/07 07:43:56;;;;;;;30.10;13.87;;;1.80;90.30;;;0.23;63.25;100446.41;10408016;27;98288;-79
2022/03/07 07:48:59;;;;;;;27.10;14.77;;;1.90;90.20;;;0.25;62.57;100458.47;10434917;27;97329;-78
2022/03/07 07:54:03;;;;;;;29.67;14.77;;;2.00;89.00;;;0.35;62.23;100463.09;10389679;27;98609;-78
2022/03/07 07:59:05;;;;;;;36.53;17.20;;;2.10;88.50;;;0.33;61.99;100468.44;10420069;27;96987;-78
2022/03/07 08:04:09;;;;;;;28.00;14.27;;;2.10;87.00;;;0.18;59.98;100478.09;10396509;27;97738;-77
2022/03/07 08:09:12;;;;;;;31.83;14.87;;;2.10;85.10;;;-0.06;60.08;100462.16;10443122;27;99293;-77
2022/03/07 08:14:15;;;;;;;28.90;13.67;;;1.80;84.10;;;-0.17;60.47;100453.28;10413432;27;96908;-77
2022/03/07 08:19:18;;;;;;;25.80;13.47;;;1.70;84.40;;;0.00;61.42;100458.31;10405854;27;97798;-78
2022/03/07 08:24:21;;;;;;;25.00;12.73;;;1.70;85.10;;;0.27;61.04;100450.53;10413322;27;96695;-77
2022/03/07 08:29:25;;;;;;;27.13;14.13;;;1.90;85.10;;;0.49;59.87;100465.72;10433692;27;96661;-77
2022/03/07 08:34:35;;;;;;;28.87;13.57;;;2.10;84.40;;;0.78;59.60;100463.81;10441128;27;97923;-77
2022/03/07 08:39:38;;;;;;;27.20;13.90;;;2.40;83.20;;;1.00;59.12;100460.66;10434867;27;96752;-77
2022/03/07 08:44:42;;;;;;;23.10;11.77;;;2.50;82.00;;;1.19;57.95;100461.13;10435757;27;96584;-78
2022/03/07 08:49:45;;;;;;;24.03;12.10;;;2.70;81.70;;;1.29;56.77;100450.88;10432954;27;96669;-77
2022/03/07 08:54:48;;;;;;;25.53;12.67;;;2.90;80.90;;;1.37;56.13;100463.47;10440549;27;97450;-77
2022/03/07 08:59:51;;;;;;;22.03;12.33;;;3.00;80.10;;;1.69;55.41;100454.28;10409959;27;96772;-78
2022/03/07 09:04:54;;;;;;;22.53;12.07;;;3.20;78.10;;;2.00;54.34;100452.16;10420579;27;97049;-77
2022/03/07 09:09:58;;;;;;;23.90;10.83;;;3.40;78.00;;;2.25;53.82;100438.16;10391153;27;98577;-78
2022/03/07 09:15:04;;;;;;;21.47;11.20;;;3.70;75.20;;;2.54;52.46;100430.84;10437782;27;97027;-78
2022/03/07 09:20:08;;;;;;;22.47;10.83;;;4.00;76.10;;;3.05;52.09;100428.78;10469154;27;96749;-78
2022/03/07 09:25:12;;;;;;;20.10;11.00;;;4.30;73.40;;;3.20;51.05;100434.72;10428888;27;96661;-77
2022/03/07 09:30:18;;;;;;;28.77;14.07;;;4.60;72.00;;;3.23;50.57;100434.47;10422132;27;96628;-76
2022/03/07 09:35:20;;;;;;;21.23;12.47;;;4.70;70.70;;;3.14;49.90;100435.16;10405842;27;96455;-76
2022/03/07 09:40:23;;;;;;;19.43;11.00;;;4.80;70.50;;;3.09;50.77;100421.53;10453072;27;96504;-76
2022/03/07 09:45:26;;;;;;;21.70;11.40;;;4.70;69.70;;;3.05;49.74;100427.97;10434682;27;98553;-77
2022/03/07 09:50:29;;;;;;;23.53;12.27;;;4.70;68.90;;;2.81;50.37;100431.44;10437169;27;96914;-76
2022/03/07 09:55:37;;;;;;;27.07;13.50;;;4.50;68.80;;;2.64;51.06;100435.31;10430700;27;96714;-77
2022/03/07 10:00:41;;;;;;;23.77;13.03;;;4.30;68.50;;;2.58;51.17;100432.28;10408382;27;96637;-76
2022/03/07 10:05:49;;;;;;;21.07;12.07;;;4.30;68.90;;;2.39;52.06;100438.00;10417261;27;98501;-76
2022/03/07 10:10:54;;;;;;;27.80;13.37;;;4.10;68.90;;;2.25;52.46;100443.41;10425222;27;99018;-76
2022/03/07 10:16:03;;;;;;;27.57;13.57;;;3.90;69.10;;;2.03;52.92;100437.03;10420761;27;96924;-76
2022/03/07 10:21:06;;;;;;;21.90;11.90;;;3.70;69.00;;;1.95;53.06;100426.28;10421559;27;96754;-77
2022/03/07 10:26:12;;;;;;;23.47;13.17;;;3.70;69.50;;;1.94;53.21;100431.63;10418980;27;96663;-77
2022/03/07 10:31:19;;;;;;;29.67;13.67;;;3.60;69.70;;;1.96;53.22;100420.06;10398983;27;97456;-77
2022/03/07 10:36:40;;;;;;;24.33;12.20;;;3.60;70.30;;;2.13;52.46;100411.03;10416578;27;97334;-77
2022/03/07 10:41:46;;;;;;;25.80;13.23;;;3.70;69.40;;;2.32;52.42;100411.38;10422707;27;97582;-77
2022/03/07 10:46:50;;;;;;;24.10;11.73;;;3.80;69.50;;;2.58;51.56;100406.03;10419627;27;97259;-77
2022/03/07 10:51:54;;;;;;;22.03;10.97;;;4.00;68.50;;;2.76;49.93;100404.72;10419225;27;97507;-77
2022/03/07 10:56:57;;;;;;;21.70;10.77;;;4.20;65.70;;;2.73;49.05;100398.84;10423198;27;96804;-77
2022/03/07 11:02:10;;;;;;;18.60;10.23;;;4.20;66.50;;;2.67;49.99;100389.63;10403340;27;96685;-77
2022/03/07 11:07:13;;;;;;;21.90;11.00;;;4.20;65.90;;;2.79;49.79;100391.38;10427946;27;97806;-77
2022/03/07 11:12:16;;;;;;;19.20;11.20;;;4.30;66.50;;;2.87;49.51;100380.28;10396883;28;96981;-77
2022/03/07 11:17:20;;;;;;;18.90;10.27;;;4.40;65.80;;;2.93;49.22;100370.16;10438251;27;97014;-77
2022/03/07 11:22:24;;;;;;;15.80;9.83;;;4.40;65.20;;;2.90;48.61;100359.91;10407119;27;98377;-77
2022/03/07 11:27:28;;;;;;;20.37;10.50;;;4.50;65.20;;;2.95;48.93;100356.94;10395883;27;97459;-77
2022/03/07 11:32:38;;;;;;;15.57;9.63;;;4.50;64.60;;;2.91;49.13;100356.31;10424227;27;96974;-78
2022/03/07 11:37:41;;;;;;;20.53;10.40;;;4.50;64.70;;;2.88;48.64;100351.31;10407581;27;98568;-78
2022/03/07 11:42:45;;;;;;;22.20;12.23;;;4.50;64.30;;;2.74;48.67;100348.88;10425416;27;96731;-77
2022/03/07 11:47:50;;;;;;;23.57;11.70;;;4.40;64.10;;;2.62;49.38;100340.13;10454281;27;96679;-78
2022/03/07 11:53:03;;;;;;;20.90;11.33;;;4.20;64.10;;;2.57;49.09;100339.63;10412970;27;97817;-78
2022/03/07 11:58:08;;;;;;;20.53;11.03;;;4.10;63.60;;;2.48;49.58;100339.47;10406532;27;96689;-78
2022/03/07 12:03:12;;;;;;;19.67;11.53;;;4.10;64.30;;;2.46;49.83;100343.97;10422304;27;96536;-77
2022/03/07 12:08:18;;;;;;;25.63;12.53;;;4.00;64.50;;;2.33;49.82;100334.38;10409364;27;96651;-78
2022/03/07 12:13:22;;;;;;;22.50;10.83;;;4.00;64.30;;;2.17;49.96;100338.25;10402048;27;99539;-77
2022/03/07 12:18:27;;;;;;;24.10;12.40;;;3.80;64.40;;;2.00;50.03;100329.81;10410829;27;96744;-77
2022/03/07 12:23:34;;;;;;;48.40;24.40;;;3.70;64.40;;;1.94;50.52;100326.78;10400044;27;97372;-77
2022/03/07 12:28:43;;;;;;;17.50;9.45;;;3.50;64.70;;;1.86;50.73;100330.81;10410116;27;96650;-77
2022/03/07 12:33:48;;;;;;;25.87;12.67;;;3.50;65.00;;;1.77;50.72;100334.06;10448984;27;96598;-77
2022/03/07 12:39:06;;;;;;;26.43;13.27;;;3.50;65.10;;;1.75;51.13;100327.28;10426815;27;96541;-77
2022/03/07 12:44:09;;;;;;;25.07;13.60;;;3.40;65.20;;;1.70;50.70;100324.97;10436896;27;96611;-77
2022/03/07 12:49:17;;;;;;;26.83;12.50;;;3.40;65.20;;;1.70;51.25;100329.38;10428683;27;98252;-77
2022/03/07 12:54:29;;;;;;;23.43;11.47;;;3.30;65.50;;;1.73;50.98;100331.75;10395869;27;98908;-78
2022/03/07 12:59:35;;;;;;;27.70;13.77;;;3.40;65.40;;;1.72;50.93;100330.09;10424279;27;96601;-77
2022/03/07 13:04:37;;;;;;;28.93;13.70;;;3.40;65.30;;;1.66;50.52;100328.72;10433639;27;96508;-76
2022/03/07 13:09:40;;;;;;;25.97;13.37;;;3.30;64.90;;;1.69;50.64;100325.91;10414301;27;96664;-78
2022/03/07 13:14:43;;;;;;;25.37;13.67;;;3.30;65.00;;;1.64;50.03;100328.03;10387884;27;97152;-78
2022/03/07 13:19:49;;;;;;;27.90;13.00;;;3.30;64.10;;;1.69;49.84;100336.41;10430734;27;98734;-78
2022/03/07 13:24:55;;;;;;;27.10;13.47;;;3.30;64.30;;;1.69;49.74;100339.00;10427445;27;98505;-78
2022/03/07 13:30:09;;;;;;;25.83;12.67;;;3.30;63.60;;;1.72;49.90;100335.31;10416761;27;96712;-78
2022/03/07 13:35:24;;;;;;;25.03;13.50;;;3.30;64.40;;;1.76;50.27;100342.03;10415799;27;96471;-78
2022/03/07 13:40:33;;;;;;;36.57;15.13;;;3.30;64.50;;;1.75;50.64;100333.34;10427698;27;96976;-77
2022/03/07 13:45:37;;;;;;;27.50;15.13;;;3.40;65.00;;;1.77;50.44;100335.84;10416756;27;96797;-78
2022/03/07 13:50:48;;;;;;;33.07;15.40;;;3.40;65.20;;;1.72;50.58;100333.53;10440291;27;99274;-78
2022/03/07 13:55:56;;;;;;;30.13;14.87;;;3.40;65.00;;;1.73;50.77;100340.44;10433232;27;98315;-78
2022/03/07 14:01:06;;;;;;;28.67;14.23;;;3.40;65.60;;;1.74;51.19;100347.41;10419876;27;96572;-78
2022/03/07 14:06:31;;;;;;;40.20;19.10;;;3.30;65.40;;;1.73;50.48;100339.63;10425335;27;97767;-78
2022/03/07 14:11:34;;;;;;;35.27;17.17;;;3.40;64.80;;;1.75;50.70;100341.19;10426143;27;96585;-78
2022/03/07 14:16:37;;;;;;;26.20;14.00;;;3.40;64.70;;;1.80;50.76;100341.72;10413627;27;96833;-78
2022/03/07 14:21:40;;;;;;;29.77;14.87;;;3.40;65.00;;;1.88;50.80;100338.53;10444638;27;98484;-78
2022/03/07 14:26:49;;;;;;;26.70;14.67;;;3.50;64.80;;;1.96;50.34;100338.84;10427901;27;97236;-79
2022/03/07 14:31:52;;;;;;;24.17;11.97;;;3.60;64.50;;;2.13;50.35;100327.97;10393930;27;97510;-78
2022/03/07 14:36:55;;;;;;;25.67;13.40;;;3.70;64.60;;;2.38;49.78;100332.28;10421524;27;98665;-78
2022/03/07 14:41:58;;;;;;;25.23;13.23;;;3.90;64.20;;;2.56;48.77;100331.88;10400331;27;96645;-77
2022/03/07 14:47:07;;;;;;;26.43;13.10;;;4.20;64.00;;;2.79;48.60;100336.25;10415434;27;97310;-77
2022/03/07 14:52:12;;;;;;;27.13;13.17;;;4.30;63.40;;;2.89;47.81;100324.13;10419154;27;96674;-77
2022/03/07 14:57:16;;;;;;;27.53;13.73;;;4.50;62.40;;;2.86;47.51;100326.97;10448686;27;97059;-78
2022/03/07 15:02:19;;;;;;;21.97;12.10;;;4.50;61.80;;;2.78;47.44;100334.59;10447089;27;96568;-78
2022/03/07 15:07:22;;;;;;;26.67;14.67;;;4.50;61.30;;;2.58;47.93;100328.19;10461712;27;96539;-78
2022/03/07 15:12:26;;;;;;;26.90;12.83;;;4.40;61.50;;;2.44;48.17;100324.91;10436789;27;96485;-78
2022/03/07 15:17:29;;;;;;;24.83;12.57;;;4.30;61.50;;;2.35;48.15;100335.13;10454357;27;96751;-78
2022/03/07 15:22:32;;;;;;;26.60;14.43;;;4.20;61.40;;;2.34;48.22;100337.84;10428912;27;96846;-76
2022/03/07 15:27:39;;;;;;;24.80;12.20;;;4.10;61.70;;;2.35;48.36;100343.00;10411749;27;96674;-77
2022/03/07 15:32:42;;;;;;;59.73;29.50;;;4.10;61.80;;;2.31;48.08;100341.53;10442560;27;96542;-77
2022/03/07 15:37:45;;;;;;;39.97;20.73;;;4.10;61.50;;;2.19;48.40;100342.44;10424020;27;97066;-77
2022/03/07 15:42:49;;;;;;;28.80;14.70;;;4.00;61.30;;;2.06;48.59;100342.47;10406892;27;97283;-77
2022/03/07 15:47:52;;;;;;;52.37;31.03;;;3.90;61.70;;;1.91;48.88;100348.78;10415631;27;96645;-77
2022/03/07 15:52:55;;;;;;;27.93;14.10;;;3.80;61.70;;;1.76;49.11;100349.91;10427951;27;96563;-77
2022/03/07 15:58:00;;;;;;;46.30;19.30;;;3.70;61.80;;;1.59;49.35;100357.16;10413966;27;97857;-77
2022/03/07 16:03:03;;;;;;;54.73;22.07;;;3.50;62.10;;;1.39;49.91;100356.84;10422737;27;97401;-78
2022/03/07 16:08:06;;;;;;;51.00;23.67;;;3.40;62.00;;;1.15;50.00;100357.59;10400150;28;97056;-77
2022/03/07 16:13:14;;;;;;;54.30;22.47;;;3.20;62.40;;;0.89;50.78;100368.94;10445866;27;96819;-78
2022/03/07 16:18:18;;;;;;;48.40;20.70;;;3.00;62.80;;;0.61;51.66;100376.00;10461439;27;96672;-78
2022/03/07 16:23:22;;;;;;;70.30;27.23;;;2.70;63.50;;;0.32;52.63;100382.28;10459315;27;96450;-77
2022/03/07 16:28:25;;;;;;;59.43;24.90;;;2.50;63.80;;;-0.03;53.52;100396.63;10415334;28;96956;-78
2022/03/07 16:33:28;;;;;;;76.87;26.43;;;2.20;64.60;;;-0.32;53.79;100398.41;10407293;27;98046;-78
2022/03/07 16:38:32;;;;;;;52.97;22.00;;;1.90;64.50;;;-0.61;54.63;100394.13;10417826;28;96456;-78
2022/03/07 16:43:40;;;;;;;166.43;49.00;;;1.70;64.70;;;-0.87;55.09;100420.00;10401146;27;96569;-77
2022/03/07 16:48:43;;;;;;;87.83;28.37;;;1.40;64.90;;;-1.11;55.79;100416.19;10416731;28;97542;-77
2022/03/07 16:53:48;;;;;;;101.97;35.17;;;1.20;66.50;;;-1.36;56.50;100422.81;10399394;28;96614;-77
2022/03/07 16:58:55;;;;;;;132.90;39.73;;;0.90;67.20;;;-1.57;56.58;100434.41;10425614;27;98171;-77
2022/03/07 17:03:58;;;;;;;99.27;33.57;;;0.70;67.10;;;-1.78;57.64;100457.28;10421096;27;97596;-78
2022/03/07 17:09:01;;;;;;;53.83;20.53;;;0.50;67.90;;;-1.95;58.23;100465.16;10424313;27;97034;-78
2022/03/07 17:14:04;;;;;;;92.40;30.30;;;0.40;68.40;;;-2.10;59.30;100466.81;10398103;27;96545;-78
2022/03/07 17:19:07;;;;;;;60.77;22.87;;;0.20;69.60;;;-2.24;60.04;100483.16;10411389;27;96847;-78
2022/03/07 17:24:10;;;;;;;66.87;25.37;;;0.00;71.50;;;-2.30;60.31;100490.44;10404572;27;96600;-78
2022/03/07 17:29:13;;;;;;;112.47;36.73;;;-0.10;70.20;;;-2.31;60.88;100507.00;10433545;27;98158;-77
2022/03/07 17:34:16;;;;;;;150.20;41.67;;;-0.10;70.50;;;-2.34;60.62;100502.81;10417201;27;96606;-77
2022/03/07 17:39:19;;;;;;;194.37;55.63;;;-0.20;70.40;;;-2.38;60.74;100506.47;10422807;27;96500;-77
2022/03/07 17:44:22;;;;;;;85.53;31.20;;;-0.20;71.00;;;-2.45;60.85;100518.94;10411314;27;98060;-78
2022/03/07 17:49:27;;;;;;;60.93;24.10;;;-0.30;71.50;;;-2.53;61.43;100520.25;10417398;27;96620;-77
2022/03/07 17:54:30;;;;;;;39.00;17.30;;;-0.40;71.20;;;-2.63;61.83;100512.06;10416115;27;97034;-77
2022/03/07 17:59:35;;;;;;;42.43;17.43;;;-0.40;73.70;;;-2.70;62.50;100518.47;10439274;27;96585;-77
2022/03/07 18:04:38;;;;;;;42.33;17.17;;;-0.50;74.90;;;-2.81;62.90;100520.78;10436966;27;98193;-76
2022/03/07 18:09:41;;;;;;;35.73;15.87;;;-0.60;75.80;;;-2.93;63.16;100526.59;10413827;27;96706;-77
2022/03/07 18:14:46;;;;;;;38.30;15.43;;;-0.70;75.40;;;-3.05;63.40;100522.81;10417051;27;96571;-78
2022/03/07 18:19:49;;;;;;;43.73;17.53;;;-0.80;74.10;;;-3.16;63.39;100546.72;10401491;27;96678;-77
2022/03/07 18:24:53;;;;;;;51.00;19.77;;;-0.90;75.20;;;-3.24;63.37;100541.88;10410040;27;96861;-77
2022/03/07 18:29:58;;;;;;;51.87;21.53;;;-1.00;74.70;;;-3.24;64.13;100549.69;10433597;27;96781;-77
2022/03/07 18:35:04;;;;;;;65.70;22.03;;;-1.00;76.30;;;-3.17;64.16;100565.84;10450875;27;96635;-77
2022/03/07 18:40:09;;;;;;;47.37;19.50;;;-1.00;76.20;;;-3.02;64.48;100574.66;10425165;27;96655;-75
2022/03/07 18:45:12;;;;;;;48.03;20.80;;;-0.90;77.00;;;-2.85;64.24;100568.66;10437349;27;96679;-78
2022/03/07 18:50:15;;;;;;;42.17;17.90;;;-0.80;76.90;;;-2.66;63.88;100563.41;10433040;27;97949;-78
2022/03/07 18:55:21;;;;;;;34.80;15.70;;;-0.70;75.80;;;-2.51;63.35;100560.91;10427347;27;98334;-77
2022/03/07 19:00:27;;;;;;;31.87;14.70;;;-0.60;74.80;;;-2.38;63.09;100570.69;10413295;27;96569;-77
2022/03/07 19:05:29;;;;;;;33.40;15.60;;;-0.50;75.90;;;-2.31;62.86;100572.91;10402130;27;96529;-78
2022/03/07 19:10:34;;;;;;;30.27;13.87;;;-0.40;75.60;;;-2.29;62.51;100573.66;10443122;27;96980;-78
2022/03/07 19:15:38;;;;;;;32.23;15.57;;;-0.30;77.70;;;-2.28;62.37;100587.53;10426983;27;96591;-78
2022/03/07 19:20:41;;;;;;;34.83;15.13;;;-0.30;78.30;;;-2.26;62.90;100593.50;10439248;27;97679;-77
2022/03/07 19:25:44;;;;;;;34.53;15.17;;;-0.30;77.20;;;-2.21;62.71;100599.34;10435761;27;97139;-78
2022/03/07 19:30:50;;;;;;;32.20;13.53;;;-0.20;76.60;;;-2.11;62.62;100600.53;10427164;27;96598;-77
2022/03/07 19:35:54;;;;;;;30.10;13.63;;;-0.20;77.20;;;-1.98;62.44;100598.16;10416413;27;97247;-78
2022/03/07 19:40:58;;;;;;;32.23;13.83;;;-0.10;77.10;;;-1.87;61.95;100606.25;10416704;27;96659;-78
2022/03/07 19:46:01;;;;;;;30.57;12.93;;;0.00;76.70;;;-1.77;61.88;100604.88;10395291;27;96666;-78
2022/03/07 19:51:05;;;;;;;27.60;12.43;;;0.10;77.30;;;-1.67;61.57;100610.47;10419719;28;96388;-78
2022/03/07 19:56:08;;;;;;;25.83;12.37;;;0.20;77.10;;;-1.58;61.55;100607.34;10432878;27;97208;-78
2022/03/07 20:01:11;;;;;;;32.17;13.60;;;0.30;76.90;;;-1.50;61.43;100589.56;10401279;27;96817;-77
2022/03/07 20:06:15;;;;;;;33.20;15.13;;;0.30;76.50;;;-1.40;60.37;100577.69;10418145;27;96511;-78
2022/03/07 20:11:17;;;;;;;34.17;15.53;;;0.40;75.70;;;-1.37;60.50;100572.34;10438780;27;96622;-77
2022/03/07 20:16:20;;;;;;;37.97;17.77;;;0.50;75.90;;;-1.45;60.86;100600.56;10454652;27;96521;-77
2022/03/07 20:21:23;;;;;;;45.73;21.07;;;0.40;76.90;;;-1.66;60.79;100612.13;10427798;27;96649;-76
2022/03/07 20:26:26;;;;;;;38.70;19.30;;;0.30;76.40;;;-1.84;61.54;100626.13;10420479;27;96664;-77
2022/03/07 20:31:30;;;;;;;34.83;17.00;;;0.10;77.00;;;-1.95;61.71;100626.66;10416644;27;96618;-77
2022/03/07 20:36:35;;;;;;;34.07;15.47;;;0.00;77.50;;;-1.96;61.90;100604.13;10439537;27;98107;-77
2022/03/07 20:41:39;;;;;;;31.90;13.87;;;0.00;76.90;;;-1.80;61.74;100593.75;10438176;27;96654;-77